sensor_id;sensor_type;location;lat;lon;timestamp;P1;durP1;ratioP1;P2;durP2;ratioP2
46931;SDS011;32670;51.464;11.964;2023-04-25T00:01:55;1.10;;;1.00;;
46931;SDS011;32670;51.464;11.964;2023-04-25T00:04:21;1.57;;;1.10;;
46931;SDS011;32670;51.464;11.964;2023-04-25T00:06:46;1.30;;;1.10;;
46931;SDS011;32670;51.464;11.964;2023-04-25T00:09:12;1.33;;;1.10;;
46931;SDS011;32670;51.464;11.964;2023-04-25T00:11:38;0.90;;;0.90;;
46931;SDS011;32670;51.464;11.964;2023-04-25T00:14:03;0.83;;;0.83;;
46931;SDS011;32670;51.464;11.964;2023-04-25T00:16:29;1.00;;;1.00;;
46931;SDS011;32670;51.464;11.964;2023-04-25T00:18:58;0.80;;;0.80;;
46931;SDS011;32670;51.464;11.964;2023-04-25T00:21:23;0.70;;;0.70;;
46931;SDS011;32670;51.464;11.964;2023-04-25T00:23:50;2.33;;;1.00;;
46931;SDS011;32670;51.464;11.964;2023-04-25T00:26:17;1.10;;;1.00;;
46931;SDS011;32670;51.464;11.964;2023-04-25T00:28:43;1.10;;;0.90;;
46931;SDS011;32670;51.464;11.964;2023-04-25T00:31:09;2.10;;;1.00;;
46931;SDS011;32670;51.464;11.964;2023-04-25T00:33:34;0.90;;;0.87;;
46931;SDS011;32670;51.464;11.964;2023-04-25T00:36:00;0.83;;;0.83;;
46931;SDS011;32670;51.464;11.964;2023-04-25T00:38:25;0.80;;;0.80;;
46931;SDS011;32670;51.464;11.964;2023-04-25T00:40:51;1.57;;;0.80;;
46931;SDS011;32670;51.464;11.964;2023-04-25T00:43:17;0.80;;;0.80;;
46931;SDS011;32670;51.464;11.964;2023-04-25T00:45:43;1.90;;;1.03;;
46931;SDS011;32670;51.464;11.964;2023-04-25T00:48:11;0.90;;;0.90;;
46931;SDS011;32670;51.464;11.964;2023-04-25T00:50:38;0.90;;;0.90;;
46931;SDS011;32670;51.464;11.964;2023-04-25T00:53:04;1.00;;;0.83;;
46931;SDS011;32670;51.464;11.964;2023-04-25T00:55:30;0.87;;;0.87;;
46931;SDS011;32670;51.464;11.964;2023-04-25T00:57:56;0.97;;;0.90;;
46931;SDS011;32670;51.464;11.964;2023-04-25T01:00:22;1.33;;;1.10;;
46931;SDS011;32670;51.464;11.964;2023-04-25T01:02:47;1.13;;;1.03;;
46931;SDS011;32670;51.464;11.964;2023-04-25T01:05:13;1.10;;;1.00;;
46931;SDS011;32670;51.464;11.964;2023-04-25T01:07:39;1.10;;;1.00;;
46931;SDS011;32670;51.464;11.964;2023-04-25T01:10:05;1.63;;;0.90;;
46931;SDS011;32670;51.464;11.964;2023-04-25T01:12:31;2.07;;;0.90;;
46931;SDS011;32670;51.464;11.964;2023-04-25T01:14:57;1.00;;;0.90;;
46931;SDS011;32670;51.464;11.964;2023-04-25T01:17:22;6.60;;;1.00;;
46931;SDS011;32670;51.464;11.964;2023-04-25T01:19:48;1.40;;;1.00;;
46931;SDS011;32670;51.464;11.964;2023-04-25T01:22:15;2.37;;;0.90;;
46931;SDS011;32670;51.464;11.964;2023-04-25T01:24:41;1.40;;;0.90;;
46931;SDS011;32670;51.464;11.964;2023-04-25T01:27:07;0.93;;;0.90;;
46931;SDS011;32670;51.464;11.964;2023-04-25T01:29:33;1.37;;;1.10;;
46931;SDS011;32670;51.464;11.964;2023-04-25T01:32:00;9.90;;;1.10;;
46931;SDS011;32670;51.464;11.964;2023-04-25T01:34:26;1.90;;;1.10;;
46931;SDS011;32670;51.464;11.964;2023-04-25T01:36:51;1.37;;;0.90;;
46931;SDS011;32670;51.464;11.964;2023-04-25T01:39:18;2.23;;;1.10;;
46931;SDS011;32670;51.464;11.964;2023-04-25T01:41:45;1.13;;;1.03;;
46931;SDS011;32670;51.464;11.964;2023-04-25T01:44:11;3.63;;;1.10;;
46931;SDS011;32670;51.464;11.964;2023-04-25T01:46:38;1.53;;;0.83;;
46931;SDS011;32670;51.464;11.964;2023-04-25T01:49:03;1.43;;;1.10;;
46931;SDS011;32670;51.464;11.964;2023-04-25T01:51:29;1.03;;;0.93;;
46931;SDS011;32670;51.464;11.964;2023-04-25T01:53:55;1.10;;;1.00;;
46931;SDS011;32670;51.464;11.964;2023-04-25T01:56:22;1.43;;;1.10;;
46931;SDS011;32670;51.464;11.964;2023-04-25T01:58:48;0.87;;;0.87;;
46931;SDS011;32670;51.464;11.964;2023-04-25T02:01:13;1.67;;;1.00;;
46931;SDS011;32670;51.464;11.964;2023-04-25T02:03:39;1.10;;;1.00;;
46931;SDS011;32670;51.464;11.964;2023-04-25T02:06:04;2.63;;;1.00;;
46931;SDS011;32670;51.464;11.964;2023-04-25T02:08:30;1.80;;;1.10;;
46931;SDS011;32670;51.464;11.964;2023-04-25T02:10:56;1.20;;;1.10;;
46931;SDS011;32670;51.464;11.964;2023-04-25T02:13:21;1.20;;;1.10;;
46931;SDS011;32670;51.464;11.964;2023-04-25T02:15:47;1.03;;;1.00;;
46931;SDS011;32670;51.464;11.964;2023-04-25T02:18:12;2.00;;;1.00;;
46931;SDS011;32670;51.464;11.964;2023-04-25T02:20:40;1.40;;;1.00;;
46931;SDS011;32670;51.464;11.964;2023-04-25T02:23:06;3.43;;;1.10;;
46931;SDS011;32670;51.464;11.964;2023-04-25T02:25:31;1.30;;;1.10;;
46931;SDS011;32670;51.464;11.964;2023-04-25T02:27:57;1.10;;;1.00;;
46931;SDS011;32670;51.464;11.964;2023-04-25T02:30:22;2.83;;;1.10;;
46931;SDS011;32670;51.464;11.964;2023-04-25T02:32:48;4.00;;;1.23;;
46931;SDS011;32670;51.464;11.964;2023-04-25T02:35:13;4.10;;;1.30;;
46931;SDS011;32670;51.464;11.964;2023-04-25T02:37:39;3.67;;;1.10;;
46931;SDS011;32670;51.464;11.964;2023-04-25T02:40:05;3.13;;;1.20;;
46931;SDS011;32670;51.464;11.964;2023-04-25T02:42:31;1.23;;;1.00;;
46931;SDS011;32670;51.464;11.964;2023-04-25T02:44:57;1.93;;;1.00;;
46931;SDS011;32670;51.464;11.964;2023-04-25T02:47:22;1.10;;;1.00;;
46931;SDS011;32670;51.464;11.964;2023-04-25T02:49:48;5.00;;;1.20;;
46931;SDS011;32670;51.464;11.964;2023-04-25T02:52:14;3.80;;;1.27;;
46931;SDS011;32670;51.464;11.964;2023-04-25T02:54:39;1.90;;;0.90;;
46931;SDS011;32670;51.464;11.964;2023-04-25T02:57:05;1.73;;;0.80;;
46931;SDS011;32670;51.464;11.964;2023-04-25T02:59:31;1.63;;;1.17;;
46931;SDS011;32670;51.464;11.964;2023-04-25T03:01:58;1.00;;;1.00;;
46931;SDS011;32670;51.464;11.964;2023-04-25T03:04:24;1.00;;;1.00;;
46931;SDS011;32670;51.464;11.964;2023-04-25T03:06:50;1.13;;;1.03;;
46931;SDS011;32670;51.464;11.964;2023-04-25T03:09:15;1.63;;;1.00;;
46931;SDS011;32670;51.464;11.964;2023-04-25T03:11:41;1.00;;;1.00;;
46931;SDS011;32670;51.464;11.964;2023-04-25T03:14:07;0.90;;;0.90;;
46931;SDS011;32670;51.464;11.964;2023-04-25T03:16:32;2.97;;;1.07;;
46931;SDS011;32670;51.464;11.964;2023-04-25T03:18:58;1.47;;;1.20;;
46931;SDS011;32670;51.464;11.964;2023-04-25T03:21:24;1.37;;;0.97;;
46931;SDS011;32670;51.464;11.964;2023-04-25T03:23:50;2.33;;;0.93;;
46931;SDS011;32670;51.464;11.964;2023-04-25T03:26:15;3.13;;;1.30;;
46931;SDS011;32670;51.464;11.964;2023-04-25T03:28:41;1.20;;;1.10;;
46931;SDS011;32670;51.464;11.964;2023-04-25T03:31:06;1.70;;;1.20;;
46931;SDS011;32670;51.464;11.964;2023-04-25T03:33:32;0.80;;;0.80;;
46931;SDS011;32670;51.464;11.964;2023-04-25T03:35:57;1.20;;;1.10;;
46931;SDS011;32670;51.464;11.964;2023-04-25T03:38:23;0.90;;;0.90;;
46931;SDS011;32670;51.464;11.964;2023-04-25T03:40:49;1.27;;;0.90;;
46931;SDS011;32670;51.464;11.964;2023-04-25T03:43:15;1.00;;;0.90;;
46931;SDS011;32670;51.464;11.964;2023-04-25T03:45:41;1.10;;;1.00;;
46931;SDS011;32670;51.464;11.964;2023-04-25T03:48:06;1.80;;;0.90;;
46931;SDS011;32670;51.464;11.964;2023-04-25T03:50:32;1.27;;;0.83;;
46931;SDS011;32670;51.464;11.964;2023-04-25T03:52:57;1.77;;;1.10;;
46931;SDS011;32670;51.464;11.964;2023-04-25T03:55:23;2.20;;;1.03;;
46931;SDS011;32670;51.464;11.964;2023-04-25T03:57:48;1.33;;;1.03;;
46931;SDS011;32670;51.464;11.964;2023-04-25T04:00:14;1.57;;;1.03;;
46931;SDS011;32670;51.464;11.964;2023-04-25T04:02:40;1.90;;;0.90;;
46931;SDS011;32670;51.464;11.964;2023-04-25T04:05:05;0.87;;;0.87;;
46931;SDS011;32670;51.464;11.964;2023-04-25T04:07:31;0.97;;;0.83;;
46931;SDS011;32670;51.464;11.964;2023-04-25T04:09:57;1.00;;;0.90;;
46931;SDS011;32670;51.464;11.964;2023-04-25T04:12:23;1.00;;;0.90;;
46931;SDS011;32670;51.464;11.964;2023-04-25T04:14:49;1.17;;;1.03;;
46931;SDS011;32670;51.464;11.964;2023-04-25T04:17:14;1.03;;;0.90;;
46931;SDS011;32670;51.464;11.964;2023-04-25T04:19:40;0.93;;;0.93;;
46931;SDS011;32670;51.464;11.964;2023-04-25T04:22:05;0.90;;;0.80;;
46931;SDS011;32670;51.464;11.964;2023-04-25T04:24:30;1.00;;;0.90;;
46931;SDS011;32670;51.464;11.964;2023-04-25T04:26:56;0.80;;;0.80;;
46931;SDS011;32670;51.464;11.964;2023-04-25T04:29:21;2.00;;;0.90;;
46931;SDS011;32670;51.464;11.964;2023-04-25T04:31:48;1.03;;;0.90;;
46931;SDS011;32670;51.464;11.964;2023-04-25T04:34:14;2.23;;;1.17;;
46931;SDS011;32670;51.464;11.964;2023-04-25T04:36:41;1.07;;;1.00;;
46931;SDS011;32670;51.464;11.964;2023-04-25T04:39:06;0.70;;;0.70;;
46931;SDS011;32670;51.464;11.964;2023-04-25T04:41:34;0.80;;;0.80;;
46931;SDS011;32670;51.464;11.964;2023-04-25T04:43:59;1.27;;;1.10;;
46931;SDS011;32670;51.464;11.964;2023-04-25T04:46:26;1.07;;;0.90;;
46931;SDS011;32670;51.464;11.964;2023-04-25T04:48:52;2.20;;;1.10;;
46931;SDS011;32670;51.464;11.964;2023-04-25T04:51:18;1.70;;;1.10;;
46931;SDS011;32670;51.464;11.964;2023-04-25T04:53:44;2.80;;;1.20;;
46931;SDS011;32670;51.464;11.964;2023-04-25T04:56:09;2.33;;;1.13;;
46931;SDS011;32670;51.464;11.964;2023-04-25T04:58:35;1.47;;;1.07;;
46931;SDS011;32670;51.464;11.964;2023-04-25T05:01:01;3.50;;;1.23;;
46931;SDS011;32670;51.464;11.964;2023-04-25T05:03:27;2.80;;;1.10;;
46931;SDS011;32670;51.464;11.964;2023-04-25T05:05:53;2.10;;;1.00;;
46931;SDS011;32670;51.464;11.964;2023-04-25T05:08:18;2.00;;;1.13;;
46931;SDS011;32670;51.464;11.964;2023-04-25T05:10:44;1.60;;;1.10;;
46931;SDS011;32670;51.464;11.964;2023-04-25T05:13:09;1.00;;;0.90;;
46931;SDS011;32670;51.464;11.964;2023-04-25T05:15:35;1.17;;;1.00;;
46931;SDS011;32670;51.464;11.964;2023-04-25T05:18:00;2.70;;;0.90;;
46931;SDS011;32670;51.464;11.964;2023-04-25T05:20:26;6.83;;;1.17;;
46931;SDS011;32670;51.464;11.964;2023-04-25T05:22:51;3.77;;;1.10;;
46931;SDS011;32670;51.464;11.964;2023-04-25T05:25:17;5.17;;;1.00;;
46931;SDS011;32670;51.464;11.964;2023-04-25T05:27:42;2.07;;;1.20;;
46931;SDS011;32670;51.464;11.964;2023-04-25T05:30:08;3.27;;;1.00;;
46931;SDS011;32670;51.464;11.964;2023-04-25T05:32:34;8.07;;;3.33;;
46931;SDS011;32670;51.464;11.964;2023-04-25T05:35:00;4.60;;;3.50;;
46931;SDS011;32670;51.464;11.964;2023-04-25T05:37:26;6.73;;;3.47;;
46931;SDS011;32670;51.464;11.964;2023-04-25T05:39:51;6.83;;;3.70;;
46931;SDS011;32670;51.464;11.964;2023-04-25T05:42:17;5.10;;;3.87;;
46931;SDS011;32670;51.464;11.964;2023-04-25T05:44:42;7.27;;;4.03;;
46931;SDS011;32670;51.464;11.964;2023-04-25T05:47:08;5.87;;;4.07;;
46931;SDS011;32670;51.464;11.964;2023-04-25T05:49:34;5.53;;;3.80;;
46931;SDS011;32670;51.464;11.964;2023-04-25T05:51:59;5.00;;;3.70;;
46931;SDS011;32670;51.464;11.964;2023-04-25T05:54:25;5.97;;;4.17;;
46931;SDS011;32670;51.464;11.964;2023-04-25T05:56:50;7.33;;;3.93;;
46931;SDS011;32670;51.464;11.964;2023-04-25T05:59:16;5.60;;;4.03;;
46931;SDS011;32670;51.464;11.964;2023-04-25T06:01:41;5.70;;;3.67;;
46931;SDS011;32670;51.464;11.964;2023-04-25T06:04:07;5.47;;;4.00;;
46931;SDS011;32670;51.464;11.964;2023-04-25T06:06:32;7.83;;;3.80;;
46931;SDS011;32670;51.464;11.964;2023-04-25T06:08:58;7.00;;;3.80;;
46931;SDS011;32670;51.464;11.964;2023-04-25T06:11:23;6.33;;;4.00;;
46931;SDS011;32670;51.464;11.964;2023-04-25T06:13:48;6.67;;;4.10;;
46931;SDS011;32670;51.464;11.964;2023-04-25T06:16:14;10.67;;;4.40;;
46931;SDS011;32670;51.464;11.964;2023-04-25T06:18:40;6.60;;;3.67;;
46931;SDS011;32670;51.464;11.964;2023-04-25T06:21:06;7.87;;;4.17;;
46931;SDS011;32670;51.464;11.964;2023-04-25T06:23:31;6.60;;;3.60;;
46931;SDS011;32670;51.464;11.964;2023-04-25T06:25:57;7.97;;;4.20;;
46931;SDS011;32670;51.464;11.964;2023-04-25T06:28:22;6.33;;;3.83;;
46931;SDS011;32670;51.464;11.964;2023-04-25T06:30:49;12.97;;;3.80;;
46931;SDS011;32670;51.464;11.964;2023-04-25T06:33:15;14.83;;;3.80;;
46931;SDS011;32670;51.464;11.964;2023-04-25T06:35:40;9.00;;;4.30;;
46931;SDS011;32670;51.464;11.964;2023-04-25T06:38:06;8.80;;;4.37;;
46931;SDS011;32670;51.464;11.964;2023-04-25T06:40:31;6.97;;;4.50;;
46931;SDS011;32670;51.464;11.964;2023-04-25T06:42:56;6.40;;;4.40;;
46931;SDS011;32670;51.464;11.964;2023-04-25T06:45:22;6.13;;;4.40;;
46931;SDS011;32670;51.464;11.964;2023-04-25T06:47:48;7.90;;;4.47;;
46931;SDS011;32670;51.464;11.964;2023-04-25T06:50:13;7.03;;;4.70;;
46931;SDS011;32670;51.464;11.964;2023-04-25T06:52:39;7.07;;;4.50;;
46931;SDS011;32670;51.464;11.964;2023-04-25T06:55:04;5.77;;;3.93;;
46931;SDS011;32670;51.464;11.964;2023-04-25T06:57:30;5.23;;;4.07;;
46931;SDS011;32670;51.464;11.964;2023-04-25T06:59:56;5.43;;;4.00;;
46931;SDS011;32670;51.464;11.964;2023-04-25T07:02:21;7.23;;;4.13;;
46931;SDS011;32670;51.464;11.964;2023-04-25T07:04:47;5.63;;;4.03;;
46931;SDS011;32670;51.464;11.964;2023-04-25T07:07:12;6.37;;;3.50;;
46931;SDS011;32670;51.464;11.964;2023-04-25T07:09:38;5.33;;;2.80;;
46931;SDS011;32670;51.464;11.964;2023-04-25T07:12:03;4.37;;;2.63;;
46931;SDS011;32670;51.464;11.964;2023-04-25T07:14:29;4.10;;;2.37;;
46931;SDS011;32670;51.464;11.964;2023-04-25T07:16:55;5.30;;;2.63;;
46931;SDS011;32670;51.464;11.964;2023-04-25T07:19:21;4.67;;;2.43;;
46931;SDS011;32670;51.464;11.964;2023-04-25T07:21:48;4.00;;;2.53;;
46931;SDS011;32670;51.464;11.964;2023-04-25T07:24:15;4.60;;;2.20;;
46931;SDS011;32670;51.464;11.964;2023-04-25T07:26:41;4.57;;;2.00;;
46931;SDS011;32670;51.464;11.964;2023-04-25T07:29:07;4.30;;;2.30;;
46931;SDS011;32670;51.464;11.964;2023-04-25T07:31:33;4.73;;;2.30;;
46931;SDS011;32670;51.464;11.964;2023-04-25T07:33:58;4.37;;;2.10;;
46931;SDS011;32670;51.464;11.964;2023-04-25T07:36:24;3.70;;;1.90;;
46931;SDS011;32670;51.464;11.964;2023-04-25T07:38:51;2.80;;;1.90;;
46931;SDS011;32670;51.464;11.964;2023-04-25T07:41:16;2.83;;;1.90;;
46931;SDS011;32670;51.464;11.964;2023-04-25T07:43:42;4.33;;;3.13;;
46931;SDS011;32670;51.464;11.964;2023-04-25T07:46:07;2.97;;;2.20;;
46931;SDS011;32670;51.464;11.964;2023-04-25T07:48:33;3.63;;;2.40;;
46931;SDS011;32670;51.464;11.964;2023-04-25T07:50:58;5.53;;;2.53;;
46931;SDS011;32670;51.464;11.964;2023-04-25T07:53:24;4.37;;;2.60;;
46931;SDS011;32670;51.464;11.964;2023-04-25T07:55:49;4.50;;;2.67;;
46931;SDS011;32670;51.464;11.964;2023-04-25T07:58:15;2.83;;;2.30;;
46931;SDS011;32670;51.464;11.964;2023-04-25T08:00:45;2.80;;;2.10;;
46931;SDS011;32670;51.464;11.964;2023-04-25T08:03:11;2.97;;;2.30;;
46931;SDS011;32670;51.464;11.964;2023-04-25T08:05:37;5.33;;;2.70;;
46931;SDS011;32670;51.464;11.964;2023-04-25T08:08:02;4.20;;;2.47;;
46931;SDS011;32670;51.464;11.964;2023-04-25T08:10:28;3.43;;;2.37;;
46931;SDS011;32670;51.464;11.964;2023-04-25T08:12:53;3.57;;;2.27;;
46931;SDS011;32670;51.464;11.964;2023-04-25T08:15:19;4.13;;;2.70;;
46931;SDS011;32670;51.464;11.964;2023-04-25T08:17:44;2.97;;;2.50;;
46931;SDS011;32670;51.464;11.964;2023-04-25T08:20:10;5.27;;;3.10;;
46931;SDS011;32670;51.464;11.964;2023-04-25T08:22:36;4.43;;;2.77;;
46931;SDS011;32670;51.464;11.964;2023-04-25T08:25:02;2.83;;;2.53;;
46931;SDS011;32670;51.464;11.964;2023-04-25T08:27:27;4.00;;;2.70;;
46931;SDS011;32670;51.464;11.964;2023-04-25T08:29:53;2.50;;;2.30;;
46931;SDS011;32670;51.464;11.964;2023-04-25T08:32:18;2.90;;;2.60;;
46931;SDS011;32670;51.464;11.964;2023-04-25T08:34:45;3.90;;;2.90;;
46931;SDS011;32670;51.464;11.964;2023-04-25T08:37:11;3.67;;;2.63;;
46931;SDS011;32670;51.464;11.964;2023-04-25T08:39:37;3.57;;;2.60;;
46931;SDS011;32670;51.464;11.964;2023-04-25T08:42:05;2.90;;;2.50;;
46931;SDS011;32670;51.464;11.964;2023-04-25T08:44:35;4.43;;;2.50;;
46931;SDS011;32670;51.464;11.964;2023-04-25T08:47:02;2.83;;;2.37;;
46931;SDS011;32670;51.464;11.964;2023-04-25T08:49:29;4.10;;;2.60;;
46931;SDS011;32670;51.464;11.964;2023-04-25T08:51:56;2.87;;;2.57;;
46931;SDS011;32670;51.464;11.964;2023-04-25T08:54:25;4.40;;;2.70;;
46931;SDS011;32670;51.464;11.964;2023-04-25T08:56:54;3.10;;;2.60;;
46931;SDS011;32670;51.464;11.964;2023-04-25T08:59:22;3.90;;;2.80;;
46931;SDS011;32670;51.464;11.964;2023-04-25T09:01:48;3.63;;;2.90;;
46931;SDS011;32670;51.464;11.964;2023-04-25T09:04:14;3.00;;;2.67;;
46931;SDS011;32670;51.464;11.964;2023-04-25T09:06:40;3.50;;;2.40;;
46931;SDS011;32670;51.464;11.964;2023-04-25T09:09:07;5.20;;;2.70;;
46931;SDS011;32670;51.464;11.964;2023-04-25T09:11:33;3.57;;;2.70;;
46931;SDS011;32670;51.464;11.964;2023-04-25T09:14:14;2.80;;;2.60;;
46931;SDS011;32670;51.464;11.964;2023-04-25T09:19:25;2.60;;;2.40;;
46931;SDS011;32670;51.464;11.964;2023-04-25T09:21:59;3.10;;;2.30;;
46931;SDS011;32670;51.464;11.964;2023-04-25T09:24:39;2.43;;;2.23;;
46931;SDS011;32670;51.464;11.964;2023-04-25T09:27:06;2.30;;;2.10;;
46931;SDS011;32670;51.464;11.964;2023-04-25T09:29:34;2.77;;;2.47;;
46931;SDS011;32670;51.464;11.964;2023-04-25T09:34:59;3.70;;;2.70;;
46931;SDS011;32670;51.464;11.964;2023-04-25T09:37:28;2.83;;;2.50;;
46931;SDS011;32670;51.464;11.964;2023-04-25T09:39:56;2.77;;;2.40;;
46931;SDS011;32670;51.464;11.964;2023-04-25T09:42:29;2.80;;;2.40;;
46931;SDS011;32670;51.464;11.964;2023-04-25T09:44:56;2.37;;;2.13;;
46931;SDS011;32670;51.464;11.964;2023-04-25T09:47:23;2.60;;;2.40;;
46931;SDS011;32670;51.464;11.964;2023-04-25T09:49:50;2.70;;;2.50;;
46931;SDS011;32670;51.464;11.964;2023-04-25T09:52:20;2.63;;;2.17;;
46931;SDS011;32670;51.464;11.964;2023-04-25T09:54:47;3.50;;;2.30;;
46931;SDS011;32670;51.464;11.964;2023-04-25T09:57:15;3.00;;;2.40;;
46931;SDS011;32670;51.464;11.964;2023-04-25T09:59:51;3.00;;;2.30;;
46931;SDS011;32670;51.464;11.964;2023-04-25T10:02:19;2.70;;;2.33;;
46931;SDS011;32670;51.464;11.964;2023-04-25T10:04:53;3.27;;;2.40;;
46931;SDS011;32670;51.464;11.964;2023-04-25T10:07:22;2.60;;;2.40;;
46931;SDS011;32670;51.464;11.964;2023-04-25T10:09:54;2.60;;;2.40;;
46931;SDS011;32670;51.464;11.964;2023-04-25T10:12:27;2.80;;;2.30;;
46931;SDS011;32670;51.464;11.964;2023-04-25T10:14:54;2.97;;;2.20;;
46931;SDS011;32670;51.464;11.964;2023-04-25T10:17:20;2.70;;;2.50;;
46931;SDS011;32670;51.464;11.964;2023-04-25T10:19:46;2.50;;;2.30;;
46931;SDS011;32670;51.464;11.964;2023-04-25T10:22:14;2.10;;;2.00;;
46931;SDS011;32670;51.464;11.964;2023-04-25T10:24:45;2.77;;;2.47;;
46931;SDS011;32670;51.464;11.964;2023-04-25T10:27:11;2.53;;;2.33;;
46931;SDS011;32670;51.464;11.964;2023-04-25T10:29:37;2.53;;;2.30;;
46931;SDS011;32670;51.464;11.964;2023-04-25T10:32:03;2.53;;;2.33;;
46931;SDS011;32670;51.464;11.964;2023-04-25T10:34:38;2.30;;;2.10;;
46931;SDS011;32670;51.464;11.964;2023-04-25T10:37:05;2.77;;;2.57;;
46931;SDS011;32670;51.464;11.964;2023-04-25T10:39:34;2.67;;;2.47;;
46931;SDS011;32670;51.464;11.964;2023-04-25T10:41:59;4.30;;;3.90;;
46931;SDS011;32670;51.464;11.964;2023-04-25T10:44:28;3.50;;;3.20;;
46931;SDS011;32670;51.464;11.964;2023-04-25T10:46:55;3.63;;;3.27;;
46931;SDS011;32670;51.464;11.964;2023-04-25T10:52:18;3.63;;;2.97;;
46931;SDS011;32670;51.464;11.964;2023-04-25T10:54:54;3.43;;;3.13;;
46931;SDS011;32670;51.464;11.964;2023-04-25T11:00:13;3.57;;;2.90;;
46931;SDS011;32670;51.464;11.964;2023-04-25T11:02:40;3.30;;;3.00;;
46931;SDS011;32670;51.464;11.964;2023-04-25T11:05:08;3.53;;;3.23;;
46931;SDS011;32670;51.464;11.964;2023-04-25T11:07:45;3.30;;;2.90;;
46931;SDS011;32670;51.464;11.964;2023-04-25T11:10:15;3.90;;;3.27;;
46931;SDS011;32670;51.464;11.964;2023-04-25T11:12:41;4.00;;;3.00;;
46931;SDS011;32670;51.464;11.964;2023-04-25T11:15:06;3.33;;;3.03;;
46931;SDS011;32670;51.464;11.964;2023-04-25T11:17:33;3.60;;;2.97;;
46931;SDS011;32670;51.464;11.964;2023-04-25T11:19:59;3.40;;;2.90;;
46931;SDS011;32670;51.464;11.964;2023-04-25T11:22:25;3.30;;;3.00;;
46931;SDS011;32670;51.464;11.964;2023-04-25T11:24:52;3.17;;;2.97;;
46931;SDS011;32670;51.464;11.964;2023-04-25T11:27:18;3.17;;;2.97;;
46931;SDS011;32670;51.464;11.964;2023-04-25T11:29:43;3.30;;;3.00;;
46931;SDS011;32670;51.464;11.964;2023-04-25T11:32:09;3.70;;;3.30;;
46931;SDS011;32670;51.464;11.964;2023-04-25T11:34:34;3.23;;;2.93;;
46931;SDS011;32670;51.464;11.964;2023-04-25T11:37:01;3.37;;;3.07;;
46931;SDS011;32670;51.464;11.964;2023-04-25T11:39:27;3.80;;;3.50;;
46931;SDS011;32670;51.464;11.964;2023-04-25T11:41:54;3.33;;;3.03;;
46931;SDS011;32670;51.464;11.964;2023-04-25T11:44:20;3.53;;;3.23;;
46931;SDS011;32670;51.464;11.964;2023-04-25T11:46:46;3.80;;;3.50;;
46931;SDS011;32670;51.464;11.964;2023-04-25T11:49:13;3.43;;;3.13;;
46931;SDS011;32670;51.464;11.964;2023-04-25T11:51:40;3.37;;;3.07;;
46931;SDS011;32670;51.464;11.964;2023-04-25T11:54:06;3.30;;;3.00;;
46931;SDS011;32670;51.464;11.964;2023-04-25T11:56:32;3.37;;;3.07;;
46931;SDS011;32670;51.464;11.964;2023-04-25T11:58:58;3.40;;;3.10;;
46931;SDS011;32670;51.464;11.964;2023-04-25T12:01:32;3.67;;;3.37;;
46931;SDS011;32670;51.464;11.964;2023-04-25T12:04:09;3.53;;;3.23;;
46931;SDS011;32670;51.464;11.964;2023-04-25T12:06:46;3.13;;;2.93;;
46931;SDS011;32670;51.464;11.964;2023-04-25T12:09:13;3.50;;;3.20;;
46931;SDS011;32670;51.464;11.964;2023-04-25T12:11:53;3.50;;;3.20;;
46931;SDS011;32670;51.464;11.964;2023-04-25T12:14:20;3.20;;;2.90;;
46931;SDS011;32670;51.464;11.964;2023-04-25T12:16:51;3.70;;;3.20;;
46931;SDS011;32670;51.464;11.964;2023-04-25T12:19:18;3.73;;;3.30;;
46931;SDS011;32670;51.464;11.964;2023-04-25T12:21:45;3.43;;;3.00;;
46931;SDS011;32670;51.464;11.964;2023-04-25T12:24:18;3.40;;;3.10;;
46931;SDS011;32670;51.464;11.964;2023-04-25T12:26:59;3.73;;;3.23;;
46931;SDS011;32670;51.464;11.964;2023-04-25T12:29:27;3.90;;;3.50;;
46931;SDS011;32670;51.464;11.964;2023-04-25T12:31:55;3.00;;;2.77;;
46931;SDS011;32670;51.464;11.964;2023-04-25T12:34:20;3.40;;;3.10;;
46931;SDS011;32670;51.464;11.964;2023-04-25T12:36:47;3.40;;;3.10;;
46931;SDS011;32670;51.464;11.964;2023-04-25T12:39:16;3.07;;;2.80;;
46931;SDS011;32670;51.464;11.964;2023-04-25T12:41:46;3.60;;;3.27;;
46931;SDS011;32670;51.464;11.964;2023-04-25T12:44:17;3.30;;;3.00;;
46931;SDS011;32670;51.464;11.964;2023-04-25T12:46:42;2.90;;;2.70;;
46931;SDS011;32670;51.464;11.964;2023-04-25T12:49:08;3.23;;;2.97;;
46931;SDS011;32670;51.464;11.964;2023-04-25T12:51:34;3.80;;;3.30;;
46931;SDS011;32670;51.464;11.964;2023-04-25T12:54:00;3.20;;;2.90;;
46931;SDS011;32670;51.464;11.964;2023-04-25T12:56:27;3.10;;;2.80;;
46931;SDS011;32670;51.464;11.964;2023-04-25T12:58:53;3.30;;;3.00;;
46931;SDS011;32670;51.464;11.964;2023-04-25T13:01:19;3.20;;;2.90;;
46931;SDS011;32670;51.464;11.964;2023-04-25T13:03:46;3.27;;;3.00;;
46931;SDS011;32670;51.464;11.964;2023-04-25T13:06:12;3.10;;;2.80;;
46931;SDS011;32670;51.464;11.964;2023-04-25T13:08:38;3.30;;;3.00;;
46931;SDS011;32670;51.464;11.964;2023-04-25T13:11:04;3.13;;;2.83;;
46931;SDS011;32670;51.464;11.964;2023-04-25T13:13:30;3.53;;;3.00;;
46931;SDS011;32670;51.464;11.964;2023-04-25T13:15:56;2.80;;;2.60;;
46931;SDS011;32670;51.464;11.964;2023-04-25T13:18:22;3.13;;;2.83;;
46931;SDS011;32670;51.464;11.964;2023-04-25T13:20:51;3.27;;;2.97;;
46931;SDS011;32670;51.464;11.964;2023-04-25T13:23:17;3.40;;;3.10;;
46931;SDS011;32670;51.464;11.964;2023-04-25T13:25:44;3.10;;;2.90;;
46931;SDS011;32670;51.464;11.964;2023-04-25T13:28:10;2.73;;;2.47;;
46931;SDS011;32670;51.464;11.964;2023-04-25T13:30:35;3.53;;;3.03;;
46931;SDS011;32670;51.464;11.964;2023-04-25T13:33:01;2.57;;;2.37;;
46931;SDS011;32670;51.464;11.964;2023-04-25T13:35:28;3.40;;;3.03;;
46931;SDS011;32670;51.464;11.964;2023-04-25T13:37:54;3.30;;;3.00;;
46931;SDS011;32670;51.464;11.964;2023-04-25T13:40:20;2.90;;;2.70;;
46931;SDS011;32670;51.464;11.964;2023-04-25T13:42:46;2.70;;;2.50;;
46931;SDS011;32670;51.464;11.964;2023-04-25T13:45:11;3.13;;;2.67;;
46931;SDS011;32670;51.464;11.964;2023-04-25T13:47:37;3.13;;;2.83;;
46931;SDS011;32670;51.464;11.964;2023-04-25T13:50:03;2.63;;;2.43;;
46931;SDS011;32670;51.464;11.964;2023-04-25T13:52:31;3.27;;;2.97;;
46931;SDS011;32670;51.464;11.964;2023-04-25T13:54:57;2.93;;;2.70;;
46931;SDS011;32670;51.464;11.964;2023-04-25T13:57:23;3.43;;;3.13;;
46931;SDS011;32670;51.464;11.964;2023-04-25T13:59:48;2.87;;;2.67;;
46931;SDS011;32670;51.464;11.964;2023-04-25T14:02:14;2.70;;;2.50;;
46931;SDS011;32670;51.464;11.964;2023-04-25T14:04:40;3.00;;;2.70;;
46931;SDS011;32670;51.464;11.964;2023-04-25T14:07:06;3.00;;;2.80;;
46931;SDS011;32670;51.464;11.964;2023-04-25T14:09:31;3.17;;;2.87;;
46931;SDS011;32670;51.464;11.964;2023-04-25T14:11:57;3.10;;;2.80;;
46931;SDS011;32670;51.464;11.964;2023-04-25T14:14:23;2.80;;;2.60;;
46931;SDS011;32670;51.464;11.964;2023-04-25T14:16:49;2.70;;;2.50;;
46931;SDS011;32670;51.464;11.964;2023-04-25T14:19:15;2.97;;;2.77;;
46931;SDS011;32670;51.464;11.964;2023-04-25T14:21:41;2.60;;;2.40;;
46931;SDS011;32670;51.464;11.964;2023-04-25T14:24:08;2.70;;;2.50;;
46931;SDS011;32670;51.464;11.964;2023-04-25T14:26:36;2.67;;;2.47;;
46931;SDS011;32670;51.464;11.964;2023-04-25T14:29:02;2.93;;;2.73;;
46931;SDS011;32670;51.464;11.964;2023-04-25T14:31:29;2.40;;;2.20;;
46931;SDS011;32670;51.464;11.964;2023-04-25T14:33:54;2.70;;;2.50;;
46931;SDS011;32670;51.464;11.964;2023-04-25T14:36:20;3.00;;;2.43;;
46931;SDS011;32670;51.464;11.964;2023-04-25T14:38:46;2.60;;;2.40;;
46931;SDS011;32670;51.464;11.964;2023-04-25T14:41:11;2.80;;;2.50;;